createdAt,value
2022-12-17T00:00:47.946Z,101627.34
2022-12-17T00:03:33.229Z,101629.44
2022-12-17T00:06:18.269Z,101629.09
2022-12-17T00:09:03.334Z,101638.66
2022-12-17T00:11:48.400Z,101637.78
2022-12-17T00:14:33.180Z,101637.56
2022-12-17T00:17:18.170Z,101645.53
2022-12-17T00:20:03.012Z,101642.28
2022-12-17T00:22:47.851Z,101649.19
2022-12-17T00:25:32.759Z,101649.69
2022-12-17T00:28:17.953Z,101652.56
2022-12-17T00:31:09.699Z,101656.03
2022-12-17T00:33:55.315Z,101650.47
2022-12-17T00:36:41.446Z,101652.91
2022-12-17T00:39:26.656Z,101657.50
2022-12-17T00:42:11.665Z,101659.81
2022-12-17T00:44:56.776Z,101659.34
2022-12-17T00:47:41.703Z,101660.84
2022-12-17T00:50:27.392Z,101663.38
2022-12-17T00:53:13.017Z,101666.03
2022-12-17T00:55:58.442Z,101677.44
2022-12-17T00:58:43.318Z,101682.19
2022-12-17T01:01:29.250Z,101684.13
2022-12-17T01:04:14.595Z,101688.97
2022-12-17T01:06:59.714Z,101695.56
2022-12-17T01:09:48.583Z,101699.47
2022-12-17T01:12:33.716Z,101703.75
2022-12-17T01:15:18.647Z,101703.97
2022-12-17T01:18:03.598Z,101708.59
2022-12-17T01:20:48.769Z,101709.97
2022-12-17T01:23:34.407Z,101712.94
2022-12-17T01:26:20.856Z,101707.63
2022-12-17T01:29:05.773Z,101710.75
2022-12-17T01:31:51.031Z,101713.41
2022-12-17T01:34:36.379Z,101709.38
2022-12-17T01:37:21.980Z,101716.31
2022-12-17T01:40:07.274Z,101713.09
2022-12-17T01:42:57.511Z,101720.81
2022-12-17T01:45:42.599Z,101721.53
2022-12-17T01:48:32.356Z,101723.13
2022-12-17T01:51:17.583Z,101724.66
2022-12-17T01:54:08.528Z,101722.22
2022-12-17T01:56:56.376Z,101722.22
2022-12-17T01:59:46.038Z,101725.03
2022-12-17T02:02:31.406Z,101727.69
2022-12-17T02:05:16.894Z,101734.94
2022-12-17T02:08:08.171Z,101744.28
2022-12-17T02:11:12.630Z,101736.53
2022-12-17T02:14:01.448Z,101736.53
2022-12-17T02:17:03.868Z,101738.75
2022-12-17T02:19:48.987Z,101734.50
2022-12-17T02:22:56.342Z,101729.28
2022-12-17T02:25:51.164Z,101730.19
2022-12-17T02:28:37.345Z,101733.56
2022-12-17T02:31:24.287Z,101731.72
2022-12-17T02:34:09.877Z,101731.03
2022-12-17T02:36:55.078Z,101729.66
2022-12-17T02:39:48.035Z,101738.88
2022-12-17T02:42:33.252Z,101732.31
2022-12-17T02:45:19.899Z,101740.03
2022-12-17T02:48:06.301Z,101741.19
2022-12-17T02:50:51.337Z,101743.13
2022-12-17T02:53:40.118Z,101744.88
2022-12-17T02:56:25.174Z,101747.88
2022-12-17T02:59:10.367Z,101748.66
2022-12-17T03:01:56.984Z,101751.25
2022-12-17T03:04:42.415Z,101752.13
2022-12-17T03:07:27.818Z,101754.78
2022-12-17T03:10:12.993Z,101759.63
2022-12-17T03:13:00.954Z,101761.34
2022-12-17T03:15:46.244Z,101762.84
2022-12-17T03:18:32.682Z,101764.94
2022-12-17T03:21:17.946Z,101782.38
2022-12-17T03:24:02.903Z,101775.91
2022-12-17T03:26:47.951Z,101780.44
2022-12-17T03:29:32.821Z,101778.84
2022-12-17T03:32:17.743Z,101782.63
2022-12-17T03:35:02.563Z,101781.38
2022-12-17T03:37:47.567Z,101771.59
2022-12-17T03:40:32.672Z,101781.63
2022-12-17T03:43:24.584Z,101791.22
2022-12-17T03:46:12.931Z,101792.81
2022-12-17T03:48:58.204Z,101798.78
2022-12-17T03:51:43.136Z,101803.66
2022-12-17T03:54:28.059Z,101805.72
2022-12-17T03:57:16.028Z,101805.72
2022-12-17T04:00:01.461Z,101807.81
2022-12-17T04:02:46.575Z,101814.00
2022-12-17T04:05:31.656Z,101819.56
2022-12-17T04:08:16.823Z,101820.69
2022-12-17T04:11:01.996Z,101828.44
2022-12-17T04:13:47.594Z,101828.44
2022-12-17T04:16:33.374Z,101835.13
2022-12-17T04:19:18.515Z,101832.25
2022-12-17T04:22:03.757Z,101835.59
2022-12-17T04:24:48.575Z,101839.88
2022-12-17T04:27:33.599Z,101841.13
2022-12-17T04:30:18.940Z,101853.00
2022-12-17T04:33:04.278Z,101841.34
2022-12-17T04:35:49.461Z,101847.38
2022-12-17T04:38:34.600Z,101839.16
2022-12-17T04:41:19.999Z,101855.66
2022-12-17T04:44:04.917Z,101853.00
2022-12-17T04:46:50.219Z,101851.75
2022-12-17T04:49:35.371Z,101854.16
2022-12-17T04:52:20.779Z,101854.16
2022-12-17T04:55:06.068Z,101852.91
2022-12-17T04:57:51.238Z,101857.63
2022-12-17T05:00:36.427Z,101861.44
2022-12-17T05:03:25.725Z,101854.63
2022-12-17T05:06:10.873Z,101858.53
2022-12-17T05:08:55.883Z,101864.41
2022-12-17T05:11:41.292Z,101870.09
2022-12-17T05:14:26.457Z,101864.66
2022-12-17T05:17:11.392Z,101864.53
2022-12-17T05:19:56.689Z,101879.88
2022-12-17T05:22:41.667Z,101876.78
2022-12-17T05:25:27.001Z,101872.28
2022-12-17T05:28:12.139Z,101871.34
2022-12-17T05:31:00.110Z,101872.84
2022-12-17T05:33:45.673Z,101873.88
2022-12-17T05:36:30.878Z,101877.22
2022-12-17T05:39:15.768Z,101886.81
2022-12-17T05:42:00.623Z,101882.91
2022-12-17T05:44:45.770Z,101887.38
2022-12-17T05:47:31.090Z,101900.63
2022-12-17T05:50:23.758Z,101904.13
2022-12-17T05:53:08.578Z,101909.66
2022-12-17T05:55:53.787Z,101920.69
2022-12-17T05:58:39.095Z,101938.47
2022-12-17T06:01:24.862Z,101923.34
2022-12-17T06:04:10.109Z,101929.00
2022-12-17T06:06:55.404Z,101934.78
2022-12-17T06:09:40.712Z,101930.53
2022-12-17T06:12:25.988Z,101934.44
2022-12-17T06:15:11.102Z,101941.34
2022-12-17T06:17:56.172Z,101935.56
2022-12-17T06:20:41.055Z,101937.75
2022-12-17T06:23:29.286Z,101941.91
2022-12-17T06:26:15.300Z,101946.78
2022-12-17T06:29:00.924Z,101949.56
2022-12-17T06:31:46.528Z,101953.00
2022-12-17T06:34:31.693Z,101954.75
2022-12-17T06:37:16.874Z,101962.56
2022-12-17T06:40:01.750Z,101966.97
2022-12-17T06:42:46.939Z,101961.56
2022-12-17T06:45:32.123Z,101960.28
2022-12-17T06:48:25.850Z,101960.34
2022-12-17T06:51:14.596Z,101973.88
2022-12-17T06:54:00.800Z,101974.91
2022-12-17T06:56:46.033Z,101979.41
2022-12-17T06:59:31.145Z,101988.06
2022-12-17T07:02:16.271Z,101985.84
2022-12-17T07:05:01.578Z,102000.06
2022-12-17T07:07:46.704Z,102008.59
2022-12-17T07:10:31.641Z,102009.84
2022-12-17T07:13:26.190Z,102014.72
2022-12-17T07:16:11.969Z,102014.50
2022-12-17T07:18:57.768Z,102019.44
2022-12-17T07:21:43.057Z,102027.03
2022-12-17T07:24:28.338Z,102026.72
2022-12-17T07:27:13.258Z,102029.59
2022-12-17T07:29:58.407Z,102032.94
2022-12-17T07:32:43.559Z,102040.47
2022-12-17T07:35:28.635Z,102032.50
2022-12-17T07:38:18.386Z,102035.84
2022-12-17T07:41:04.181Z,102046.25
2022-12-17T07:43:52.937Z,102049.25
2022-12-17T07:46:38.544Z,102052.72
2022-12-17T07:49:25.895Z,102060.00
2022-12-17T07:52:12.079Z,102062.44
2022-12-17T07:54:57.334Z,102075.47
2022-12-17T07:57:42.865Z,102074.44
2022-12-17T08:00:28.798Z,102083.44
2022-12-17T08:03:17.963Z,102080.19
2022-12-17T08:06:03.253Z,102086.75
2022-12-17T08:08:48.636Z,102091.00
2022-12-17T08:11:33.859Z,102086.88
2022-12-17T08:14:18.844Z,102083.84
2022-12-17T08:17:04.097Z,102086.25
2022-12-17T08:19:49.353Z,102085.47
2022-12-17T08:22:34.380Z,102092.19
2022-12-17T08:25:19.492Z,102099.22
2022-12-17T08:28:07.388Z,102094.72
2022-12-17T08:30:55.842Z,102092.66
2022-12-17T08:33:41.264Z,102090.44
2022-12-17T08:36:27.660Z,102101.88
2022-12-17T08:39:12.876Z,102103.28
2022-12-17T08:42:03.940Z,102107.31
2022-12-17T08:44:49.671Z,102114.81
2022-12-17T08:47:34.656Z,102116.41
2022-12-17T08:50:19.787Z,102116.63
2022-12-17T08:53:05.040Z,102120.91
2022-12-17T08:55:49.991Z,102117.66
2022-12-17T08:58:35.068Z,102123.19
2022-12-17T09:01:20.227Z,102125.75
2022-12-17T09:04:05.652Z,102132.81
2022-12-17T09:06:52.084Z,102134.31
2022-12-17T09:09:37.381Z,102135.47
2022-12-17T09:12:22.622Z,102138.34
2022-12-17T09:15:07.895Z,102135.81
2022-12-17T09:17:53.083Z,102139.88
2022-12-17T09:20:39.098Z,102146.66
2022-12-17T09:23:24.231Z,102144.91
2022-12-17T09:26:16.412Z,102145.34
2022-12-17T09:29:01.598Z,102148.75
2022-12-17T09:31:46.723Z,102143.31
2022-12-17T09:34:31.717Z,102153.78
2022-12-17T09:37:19.210Z,102158.94
2022-12-17T09:40:04.560Z,102149.38
2022-12-17T09:43:10.582Z,102155.25
2022-12-17T09:46:09.522Z,102153.78
2022-12-17T09:49:01.533Z,102159.44
2022-12-17T09:51:47.748Z,102158.31
2022-12-17T09:55:01.460Z,102159.38
2022-12-17T09:57:49.519Z,102160.75
2022-12-17T10:00:42.063Z,102162.16
2022-12-17T10:03:45.901Z,102172.09
2022-12-17T10:06:35.781Z,102164.59
2022-12-17T10:09:28.737Z,102173.75
2022-12-17T10:12:14.394Z,102162.66
2022-12-17T10:14:59.623Z,102171.53
2022-12-17T10:17:44.822Z,102173.47
2022-12-17T10:20:57.535Z,102177.63
2022-12-17T10:23:44.226Z,102182.16
2022-12-17T10:26:36.138Z,102186.81
2022-12-17T10:29:30.042Z,102182.75
2022-12-17T10:32:18.704Z,102177.19
2022-12-17T10:35:05.890Z,102176.97
2022-12-17T10:37:53.337Z,102179.31
2022-12-17T10:40:47.658Z,102191.78
2022-12-17T10:43:44.033Z,102200.31
2022-12-17T10:46:29.303Z,102195.59
2022-12-17T10:49:29.930Z,102199.88
2022-12-17T10:52:25.439Z,102201.50
2022-12-17T10:55:16.191Z,102204.16
2022-12-17T10:58:01.783Z,102209.94
2022-12-17T11:00:56.689Z,102205.38
2022-12-17T11:03:46.398Z,102216.22
2022-12-17T11:06:37.478Z,102212.97
2022-12-17T11:09:33.666Z,102209.16
2022-12-17T11:12:19.846Z,102215.63
2022-12-17T11:15:09.673Z,102209.88
2022-12-17T11:17:56.034Z,102215.53
2022-12-17T11:20:43.562Z,102221.22
2022-12-17T11:23:36.720Z,102220.03
2022-12-17T11:26:26.530Z,102220.50
2022-12-17T11:29:11.724Z,102220.84
2022-12-17T11:32:23.620Z,102225.81
2022-12-17T11:35:43.259Z,102231.56
2022-12-17T11:38:52.528Z,102238.44
2022-12-17T11:42:00.962Z,102242.44
2022-12-17T11:44:59.291Z,102237.50
2022-12-17T11:47:57.544Z,102237.88
2022-12-17T11:50:51.988Z,102244.88
2022-12-17T11:53:51.083Z,102247.31
2022-12-17T11:56:46.276Z,102247.72
2022-12-17T11:59:52.859Z,102252.13
2022-12-17T12:02:58.267Z,102256.03
2022-12-17T12:06:11.458Z,102253.38
2022-12-17T12:09:02.979Z,102251.00
2022-12-17T12:11:57.730Z,102247.53
2022-12-17T12:15:01.866Z,102240.16
2022-12-17T12:18:05.562Z,102244.44
2022-12-17T12:21:24.885Z,102250.75
2022-12-17T12:24:27.015Z,102257.56
2022-12-17T12:27:21.799Z,102251.59
2022-12-17T12:30:29.088Z,102259.91
2022-12-17T12:33:22.918Z,102260.25
2022-12-17T12:36:19.175Z,102279.47
2022-12-17T12:39:05.325Z,102272.28
2022-12-17T12:42:09.417Z,102282.91
2022-12-17T12:45:19.169Z,102276.56
2022-12-17T12:48:25.571Z,102278.78
2022-12-17T12:51:41.880Z,102282.31
2022-12-17T12:55:02.910Z,102286.03
2022-12-17T12:57:50.754Z,102289.09
2022-12-17T13:00:56.305Z,102291.75
2022-12-17T13:03:49.733Z,102289.31
2022-12-17T13:06:39.997Z,102295.03
2022-12-17T13:09:15.776Z,102291.34
2022-12-17T13:12:00.174Z,102294.00
2022-12-17T13:14:29.163Z,102298.56
2022-12-17T13:17:08.061Z,102302.19
2022-12-17T13:19:47.346Z,102293.09
2022-12-17T13:22:23.781Z,102288.09
2022-12-17T13:24:52.860Z,102301.53
2022-12-17T13:27:31.193Z,102303.97
2022-12-17T13:29:59.859Z,102305.13
2022-12-17T13:32:33.994Z,102306.38
2022-12-17T13:35:12.779Z,102306.47
2022-12-17T13:37:59.974Z,102305.22
2022-12-17T13:40:45.458Z,102314.31
2022-12-17T13:43:18.028Z,102319.41
2022-12-17T13:45:44.872Z,102314.47
2022-12-17T13:48:21.337Z,102327.59
2022-12-17T13:50:59.979Z,102325.03
2022-12-17T13:53:27.615Z,102331.75
2022-12-17T13:55:57.044Z,102330.56
2022-12-17T13:58:26.927Z,102332.16
2022-12-17T14:01:14.650Z,102339.09
2022-12-17T14:06:37.848Z,102348.97
2022-12-17T14:09:04.808Z,102354.69
2022-12-17T14:11:50.455Z,102360.00
2022-12-17T14:14:31.360Z,102368.63
2022-12-17T14:16:57.889Z,102359.97
2022-12-17T14:19:24.776Z,102364.03
2022-12-17T14:21:51.621Z,102362.19
2022-12-17T14:24:23.189Z,102364.03
2022-12-17T14:26:50.977Z,102364.84
2022-12-17T14:29:26.019Z,102358.06
2022-12-17T14:31:57.729Z,102355.56
2022-12-17T14:34:24.926Z,102355.56
2022-12-17T14:37:18.490Z,102362.19
2022-12-17T14:39:46.821Z,102361.38
2022-12-17T14:42:26.441Z,102373.81
2022-12-17T14:44:55.802Z,102380.53
2022-12-17T14:47:30.053Z,102376.41
2022-12-17T14:50:11.836Z,102386.66
2022-12-17T14:52:42.645Z,102396.84
2022-12-17T14:55:35.389Z,102389.97
2022-12-17T14:58:14.061Z,102400.03
2022-12-17T15:00:43.386Z,102399.47
2022-12-17T15:03:11.919Z,102394.97
2022-12-17T15:05:38.689Z,102405.16
2022-12-17T15:08:05.656Z,102403.31
2022-12-17T15:10:32.182Z,102408.19
2022-12-17T15:12:58.720Z,102400.63
2022-12-17T15:15:25.250Z,102410.84
2022-12-17T15:17:51.815Z,102410.31
2022-12-17T15:20:20.720Z,102411.16
2022-12-17T15:22:47.876Z,102410.59
2022-12-17T15:25:16.117Z,102425.50
2022-12-17T15:27:42.718Z,102422.28
2022-12-17T15:30:19.226Z,102431.44
2022-12-17T15:32:46.187Z,102429.59
2022-12-17T15:35:13.220Z,102431.00
2022-12-17T15:37:39.855Z,102429.38
2022-12-17T15:40:07.209Z,102442.16
2022-12-17T15:42:52.465Z,102438.53
2022-12-17T15:45:19.453Z,102438.72
2022-12-17T15:47:46.047Z,102444.03
2022-12-17T15:50:12.590Z,102445.63
2022-12-17T15:52:39.078Z,102444.22
2022-12-17T15:55:06.004Z,102443.47
2022-12-17T15:57:32.538Z,102446.34
2022-12-17T15:59:59.174Z,102444.91
2022-12-17T16:02:26.025Z,102449.19
2022-12-17T16:04:52.807Z,102444.50
2022-12-17T16:07:19.323Z,102448.59
2022-12-17T16:09:45.863Z,102446.13
2022-12-17T16:12:12.418Z,102446.59
2022-12-17T16:14:38.908Z,102451.72
2022-12-17T16:17:05.437Z,102450.47
2022-12-17T16:19:31.995Z,102442.50
2022-12-17T16:21:58.534Z,102453.97
2022-12-17T16:24:25.047Z,102452.72
2022-12-17T16:26:51.579Z,102460.50
2022-12-17T16:29:18.148Z,102453.31
2022-12-17T16:31:46.107Z,102455.16
2022-12-17T16:34:13.279Z,102453.91
2022-12-17T16:36:39.977Z,102451.88
2022-12-17T16:39:06.634Z,102453.88
2022-12-17T16:41:33.602Z,102461.63
2022-12-17T16:44:00.829Z,102462.25
2022-12-17T16:46:32.750Z,102468.16
2022-12-17T16:49:04.545Z,102474.31
2022-12-17T16:51:31.088Z,102472.69
2022-12-17T16:53:58.237Z,102464.31
2022-12-17T16:56:28.505Z,102471.94
2022-12-17T16:58:55.453Z,102477.63
2022-12-17T17:01:28.002Z,102482.91
2022-12-17T17:03:55.431Z,102480.88
2022-12-17T17:06:22.679Z,102476.00
2022-12-17T17:08:49.558Z,102475.81
2022-12-17T17:11:21.244Z,102479.31
2022-12-17T17:13:49.746Z,102478.09
2022-12-17T17:16:17.642Z,102484.22
2022-12-17T17:18:44.241Z,102478.72
2022-12-17T17:21:23.388Z,102476.09
2022-12-17T17:23:53.482Z,102483.41
2022-12-17T17:26:24.327Z,102484.63
2022-12-17T17:28:51.860Z,102489.75
2022-12-17T17:31:18.816Z,102500.16
2022-12-17T17:33:48.656Z,102503.63
2022-12-17T17:36:19.504Z,102500.53
2022-12-17T17:38:46.428Z,102502.19
2022-12-17T17:41:15.585Z,102508.09
2022-12-17T17:43:42.225Z,102505.44
2022-12-17T17:46:11.720Z,102509.94
2022-12-17T17:48:38.615Z,102508.72
2022-12-17T17:51:29.495Z,102514.22
2022-12-17T17:54:09.641Z,102513.19
2022-12-17T17:56:41.315Z,102516.84
2022-12-17T17:59:13.248Z,102513.00
2022-12-17T18:01:42.616Z,102512.16
2022-12-17T18:04:15.304Z,102526.63
2022-12-17T18:07:02.535Z,102525.59
2022-12-17T18:09:30.085Z,102528.66
2022-12-17T18:11:56.618Z,102527.84
2022-12-17T18:14:23.172Z,102523.97
2022-12-17T18:16:49.756Z,102527.66
2022-12-17T18:19:19.718Z,102521.34
2022-12-17T18:21:47.406Z,102539.84
2022-12-17T18:24:19.583Z,102533.38
2022-12-17T18:26:47.983Z,102534.75
2022-12-17T18:29:16.801Z,102537.63
2022-12-17T18:31:48.489Z,102529.06
2022-12-17T18:34:20.547Z,102535.16
2022-12-17T18:36:48.244Z,102537.00
2022-12-17T18:39:16.038Z,102539.22
2022-12-17T18:42:02.214Z,102545.16
2022-12-17T18:44:29.637Z,102544.72
2022-12-17T18:46:56.311Z,102547.38
2022-12-17T18:49:26.665Z,102555.09
2022-12-17T18:51:54.227Z,102548.78
2022-12-17T18:54:23.198Z,102559.59
2022-12-17T18:57:01.051Z,102557.56
2022-12-17T18:59:29.700Z,102560.22
2022-12-17T19:01:56.648Z,102568.97
2022-12-17T19:04:23.973Z,102567.53
2022-12-17T19:06:53.508Z,102574.63
2022-12-17T19:09:23.483Z,102580.94
2022-12-17T19:11:50.791Z,102576.84
2022-12-17T19:14:17.967Z,102584.19
2022-12-17T19:16:45.139Z,102589.69
2022-12-17T19:19:13.093Z,102588.72
2022-12-17T19:21:40.172Z,102591.72
2022-12-17T19:24:09.081Z,102590.91
2022-12-17T19:26:35.808Z,102587.47
2022-12-17T19:29:03.051Z,102591.31
2022-12-17T19:31:31.375Z,102591.16
2022-12-17T19:33:59.985Z,102599.75
2022-12-17T19:36:28.736Z,102600.81
2022-12-17T19:38:57.526Z,102605.91
2022-12-17T19:41:25.336Z,102609.38
2022-12-17T19:43:57.028Z,102616.72
2022-12-17T19:46:24.998Z,102613.25
2022-12-17T19:48:52.514Z,102617.91
2022-12-17T19:51:22.292Z,102617.91
2022-12-17T19:53:49.997Z,102620.91
2022-12-17T19:56:27.196Z,102625.53
2022-12-17T19:59:00.902Z,102623.09
2022-12-17T20:01:32.589Z,102620.09
2022-12-17T20:03:59.911Z,102619.47
2022-12-17T20:06:29.676Z,102626.16
2022-12-17T20:08:58.150Z,102618.47
2022-12-17T20:11:33.959Z,102631.50
2022-12-17T20:14:01.763Z,102629.72
2022-12-17T20:16:30.464Z,102629.88
2022-12-17T20:18:59.655Z,102634.06
2022-12-17T20:21:26.204Z,102635.84
2022-12-17T20:23:52.785Z,102634.53
2022-12-17T20:26:19.409Z,102637.66
2022-12-17T20:28:46.291Z,102641.28
2022-12-17T20:31:13.127Z,102642.88
2022-12-17T20:33:39.776Z,102641.94
2022-12-17T20:36:12.654Z,102634.69
2022-12-17T20:38:39.613Z,102636.31
2022-12-17T20:41:27.876Z,102637.09
2022-12-17T20:43:56.221Z,102643.59
2022-12-17T20:46:24.255Z,102647.44
2022-12-17T20:48:50.839Z,102657.03
2022-12-17T20:51:22.699Z,102654.59
2022-12-17T20:53:49.448Z,102652.97
2022-12-17T20:56:17.812Z,102658.25
2022-12-17T20:58:44.568Z,102662.28
2022-12-17T21:01:12.964Z,102663.84
2022-12-17T21:03:39.975Z,102656.34
2022-12-17T21:06:12.302Z,102653.22
2022-12-17T21:08:42.396Z,102652.44
2022-12-17T21:11:13.123Z,102662.47
2022-12-17T21:13:39.736Z,102662.66
2022-12-17T21:16:10.797Z,102656.41
2022-12-17T21:18:37.707Z,102663.00
2022-12-17T21:21:07.531Z,102664.91
2022-12-17T21:23:36.256Z,102660.06
2022-12-17T21:26:09.940Z,102666.16
2022-12-17T21:28:38.381Z,102665.06
2022-12-17T21:31:05.759Z,102667.69
2022-12-17T21:33:32.382Z,102681.44
2022-12-17T21:36:01.172Z,102685.63
2022-12-17T21:38:34.279Z,102686.06
2022-12-17T21:41:06.557Z,102695.19
2022-12-17T21:43:34.243Z,102697.19
2022-12-17T21:46:01.021Z,102693.91
2022-12-17T21:48:27.675Z,102699.84
2022-12-17T21:50:54.431Z,102695.78
2022-12-17T21:53:21.362Z,102692.47
2022-12-17T21:55:48.474Z,102701.28
2022-12-17T21:58:15.534Z,102695.41
2022-12-17T22:00:42.644Z,102698.34
2022-12-17T22:03:09.197Z,102709.38
2022-12-17T22:05:37.432Z,102701.50
2022-12-17T22:08:04.973Z,102702.00
2022-12-17T22:10:42.355Z,102709.75
2022-12-17T22:13:34.162Z,102719.88
2022-12-17T22:16:01.282Z,102717.66
2022-12-17T22:18:27.926Z,102717.31
2022-12-17T22:20:59.377Z,102712.97
2022-12-17T22:23:25.981Z,102713.31
2022-12-17T22:25:52.857Z,102724.06
2022-12-17T22:28:19.375Z,102716.88
2022-12-17T22:31:04.675Z,102721.50
2022-12-17T22:34:10.316Z,102725.66
2022-12-17T22:38:23.524Z,102729.94
2022-12-17T22:42:31.025Z,102726.34
2022-12-17T22:44:37.196Z,102732.56
2022-12-17T22:45:10.183Z,102740.56
2022-12-17T22:47:37.907Z,102743.78
2022-12-17T22:50:04.742Z,102747.78
2022-12-17T22:52:31.940Z,102761.59
2022-12-17T22:54:59.149Z,102760.41
2022-12-17T22:57:36.255Z,102760.56
2022-12-17T23:00:16.805Z,102755.44
2022-12-17T23:02:43.463Z,102766.88
2022-12-17T23:05:10.021Z,102769.78
2022-12-17T23:07:36.634Z,102765.38
2022-12-17T23:10:04.939Z,102765.25
2022-12-17T23:12:50.054Z,102767.53
2022-12-17T23:15:19.878Z,102771.63
2022-12-17T23:17:46.494Z,102764.53
2022-12-17T23:20:14.143Z,102768.44
2022-12-17T23:22:40.727Z,102771.50
2022-12-17T23:25:08.011Z,102768.44
2022-12-17T23:27:34.566Z,102774.00
2022-12-17T23:30:01.190Z,102778.56
2022-12-17T23:32:27.835Z,102766.34
2022-12-17T23:34:54.387Z,102769.97
2022-12-17T23:37:20.908Z,102768.72
2022-12-17T23:39:47.408Z,102771.88
2022-12-17T23:42:13.940Z,102770.38
2022-12-17T23:44:40.504Z,102774.53
2022-12-17T23:47:07.020Z,102769.97
2022-12-17T23:49:33.511Z,102773.16
2022-12-17T23:52:00.038Z,102772.44
2022-12-17T23:54:26.604Z,102780.00
2022-12-17T23:56:53.138Z,102784.25
2022-12-17T23:59:19.705Z,102782.50
